Ringoes, NJ

11:28 AM EDT on September 05, 2015 (GMT -0400)
East Amwell Rt 514 | | Change Station
CLOSE
Current Station
Personal Weather Station
Location: Ringoes, NJ
Elevation: 262 ft
Nearby Weather Stations

Elev 262 ft 40.45 °N, 74.85 °W | Updated 5 seconds ago

Clear
Clear
78.3 °F
Feels Like 80 °F
N
2.9
Wind Variable Wind from East
Gusts 8.0 mph

Today
High -- | Low -- °F
--% Chance of Precip.
Yesterday
High -- | Low -- °F
Precip. -- in
6:30 AM 7:25 PM
Waning Gibbous, 48% visible
Pressure 30.25 in
Visibility 10.0 miles
Clouds Clear
Heat Index 80 °F
Dew Point 63 °F
Humidity 59%
Rainfall 0.00 in
Snow Depth Not available.
UV 7 out of 12
Pollen 9.60 out of 12
Air Quality Not available.
Flu Activity Not available.
METAR KTTN 051453Z 06007KT 010V110 10SM CLR 24/16 A3026 RMK AO2 SLP242 T02440156 53001
Pressure 30.25 in
Visibility 10.0 miles
Clouds Clear
Heat Index 80 °F
Dew Point 63 °F
Humidity 59%
Rainfall 0.00 in
Snow Depth Not available.
UV 7 out of 12
Pollen 9.60 out of 12
Air Quality Not available.
Flu Activity Not available.
METAR KTTN 051453Z 06007KT 010V110 10SM CLR 24/16 A3026 RMK AO2 SLP242 T02440156 53001

10-Day Weather Forecast

×

Almanac

Astronomy

Sep. 05, 2015 Rise Set
Actual Time
Civil Twilight
Nautical Twilight
Astronomical Twilight
Moon
Length of Visible Light
Length of Day
Tomorrow will be .
, % of the Moon is Illuminated

Today's Extremes

State Highs State Lows

Community

WunderPhotos

Upload Photos

1,852,482 photos uploaded!

WunderBlogs® & News

Nearby

Air Quality

  Air Quality AQ Index Pollutant
Not available.

Snow Depth

Station Depth Elevation

Earthquake Activity

City Distance Mag. Time & Date
Minimum magnitude displayed is 2.5.

Coastal Water Temperatures

Place Temperature

Stations

Nearby Weather Stations

Station Location Temp. Windchill Dew Point Humidity Wind Precip. Elev Updated Type